Flight OLY944

  • Submitted By: Stavros Sarikas
  • Departure Airport: Eleftherios Venizelos International Airport (LGAV)
  • Arrival Airport: Dimokritos Airport (LGAL)
  • Aircraft: A300-600 (SX-BEL)
  • Flight Time: 00.56
  • Date Submitted: 29/11/2017
  • Route: NEVRA UG33 LMO
  • Status: Accepted
Flight Details
Gross Revenue:
(165 load / € 55.00 per unit
€ 9, 075.00
Fuel Cost:
(1988 fuel used @ 0.19 / unit)
€ 377.72

Additional Log Information:

View Log

Aircraft Used in flight is Airbus A320 British Airways G-EUUU
22:50 Boarding
22:50 Navigation Lights ON at 320 Feet
22:50 Beacon Lights ON at 320 Feet
22:50 Brakes are On
22:54 Engine 2 Started
22:56 Engine 1 Started
22:57 Brakes are Released
22:57 Pushing back
22:58 Flaps 3 Selected at 320ft and 0kts
22:58 Taxi Lights ON at 320 Feet
22:59 Landing Lights ON at 320 AGL
22:59 Strobe Lights ON at 320 Feet
23:02 You Took off @ 140 Knots and Flaps at Position 3 With a heading of 37 Degrees
Departure Weather LGAV 292050Z VRB01KT CAVOK 08/03 Q1019 NOSIG
Departure Coordinates 37.9377683376511/ 23.9566061825687
Takeoff Weight=59673KG Fuel Weight=4827KG
23:02 Landing Gear Up @ 142 Knots and 390 Feet
23:02 Taxi Lights OFF at 400 Feet
23:03 Flaps 2 Selected at 1810ft and 145kts
23:03 Flaps 0 Selected at 2110ft and 184kts
23:05 You exceeded maximum bank angle
23:06 Above FL100 you need to switch of the landing lights
23:06 Landing Lights OFF at 10340 AGL
23:11 TOC Reached
23:32 Landing Lights ON at 9820 AGL
23:34 Below 10000 feet you are not allowed to go over 250 knots
23:39 Flaps 1 Selected at 2940ft and 209kts
23:40 Flaps 2 Selected at 700ft and 202kts
23:40 Flaps 3 Selected at 700ft and 202kts
23:41 Landing Gear Down @ 194 Knots and 600 Feet
23:41 Flaps 1 Selected at 160ft and 236kts
23:41 Landing Gear Up @ 244 Knots and 130 Feet
23:44 Flaps 3 Selected at 400ft and 178kts
23:44 Landing Gear Down @ 158 Knots and 510 Feet
23:45 You Landed @ 124 Knots with -250 Vertical Speed With a heading of 72 and with 1.92 G Force
Arrival Weather: LGAL 291950Z VRB02KT CAVOK 05/04 Q1018
Arrival Coordinates 40.8533086464298/ 25.9408567329409
Landing Weight=57866KG Fuel Weight=3022KG
23:45 Airplane Bounced
23:45 Airplane Bounced
23:45 Airplane Bounced
23:45 Airplane Bounced
23:46 Taxiing to gate
23:46 Brakes are On
Pirep logged with OA Virtual Tracking 1.0.2.6

Route Map